Time;durP1;ratioP1;P1;durP2;ratioP2;P2;SDS_P1;SDS_P2;PMS_P1;PMS_P2;Temp;Humidity;BMP_temperature;BMP_pressure;BME280_temperature;BME280_humidity;BME280_pressure;Samples;Min_cycle;Max_cycle;Signal;HPM_P1;HPM_P2
2021/06/14 00:04:31;;;;;;;2.30;2.10;;;19.20;24.10;;;;;;10430831;28;20240;-76
2021/06/14 00:09:35;;;;;;;2.10;1.90;;;19.10;24.50;;;;;;10430816;28;20228;-76
2021/06/14 00:14:39;;;;;;;2.60;2.20;;;19.00;24.60;;;;;;10433905;28;20232;-76
2021/06/14 00:19:42;;;;;;;1.83;1.73;;;18.90;24.60;;;;;;10428755;28;20231;-76
2021/06/14 00:24:46;;;;;;;2.00;1.80;;;18.90;24.60;;;;;;10428941;28;20619;-76
2021/06/14 00:29:50;;;;;;;1.90;1.80;;;18.80;24.50;;;;;;10432679;28;20573;-76
2021/06/14 00:34:53;;;;;;;2.20;1.90;;;18.70;24.40;;;;;;10435152;28;20229;-76
2021/06/14 00:39:58;;;;;;;1.80;1.70;;;18.60;24.40;;;;;;10432724;28;20610;-76
2021/06/14 00:45:01;;;;;;;2.47;2.10;;;18.50;24.70;;;;;;10427963;28;20237;-76
2021/06/14 00:50:05;;;;;;;2.27;2.07;;;18.40;24.70;;;;;;10427883;28;20682;-76
2021/06/14 00:55:14;;;;;;;3.10;2.07;;;18.30;25.00;;;;;;10432454;28;20236;-76
2021/06/14 01:00:18;;;;;;;2.10;2.00;;;18.20;25.30;;;;;;10429208;28;20263;-76
2021/06/14 01:05:23;;;;;;;2.37;2.20;;;18.20;25.00;;;;;;10426613;28;20244;-76
2021/06/14 01:10:28;;;;;;;2.23;2.03;;;18.10;25.30;;;;;;10428295;28;20257;-76
2021/06/14 01:15:31;;;;;;;1.90;1.80;;;18.10;25.30;;;;;;10432030;28;20603;-76
2021/06/14 01:20:49;;;;;;;2.00;1.80;;;18.00;25.10;;;;;;10428103;28;21031;-76
2021/06/14 01:25:56;;;;;;;1.80;1.70;;;18.00;25.90;;;;;;10428687;28;20233;-76
2021/06/14 01:31:02;;;;;;;2.60;2.40;;;17.90;25.70;;;;;;10426234;28;20230;-76
2021/06/14 01:36:07;;;;;;;4.17;2.60;;;17.80;25.60;;;;;;10424726;28;20240;-76
2021/06/14 01:41:11;;;;;;;2.53;2.00;;;17.70;25.50;;;;;;10432644;28;20241;-76
2021/06/14 01:46:21;;;;;;;2.30;2.10;;;17.70;25.70;;;;;;10432260;28;20869;-76
2021/06/14 01:51:27;;;;;;;2.10;2.00;;;17.70;26.20;;;;;;10429614;28;20712;-76
2021/06/14 01:56:33;;;;;;;2.90;2.60;;;17.60;25.80;;;;;;10426852;28;20240;-76
2021/06/14 02:01:39;;;;;;;3.40;2.70;;;17.50;25.90;;;;;;10427353;28;20233;-76
2021/06/14 02:06:45;;;;;;;2.33;2.13;;;17.40;26.30;;;;;;10425777;28;20252;-76
2021/06/14 02:11:51;;;;;;;2.83;2.30;;;17.30;26.10;;;;;;10430955;28;20229;-76
2021/06/14 02:16:56;;;;;;;2.70;2.50;;;17.10;26.20;;;;;;10426053;28;20701;-76
2021/06/14 02:21:59;;;;;;;2.63;2.37;;;17.00;26.50;;;;;;10427563;28;20243;-76
2021/06/14 02:27:02;;;;;;;2.47;2.27;;;17.00;26.20;;;;;;10425551;28;20236;-77
2021/06/14 02:32:08;;;;;;;2.90;2.70;;;16.90;26.20;;;;;;10428574;28;20617;-76
2021/06/14 02:37:13;;;;;;;2.57;2.30;;;16.80;26.70;;;;;;10424184;28;20235;-76
2021/06/14 02:42:17;;;;;;;2.83;2.60;;;16.70;26.40;;;;;;10422317;28;20234;-77
2021/06/14 02:47:22;;;;;;;2.50;2.30;;;16.70;26.70;;;;;;10419738;28;20233;-76
2021/06/14 02:52:27;;;;;;;2.37;2.20;;;16.60;27.00;;;;;;10424934;28;20240;-76
2021/06/14 02:57:33;;;;;;;3.13;2.80;;;16.50;26.80;;;;;;10418317;28;20225;-76
2021/06/14 03:02:39;;;;;;;3.13;2.83;;;16.50;26.90;;;;;;10426548;28;20252;-76
2021/06/14 03:07:45;;;;;;;3.07;2.83;;;16.50;27.20;;;;;;10425998;28;20228;-76
2021/06/14 03:12:48;;;;;;;2.50;2.30;;;16.40;26.80;;;;;;10421083;28;20476;-76
2021/06/14 03:17:54;;;;;;;3.27;2.57;;;16.30;26.80;;;;;;10424380;28;20236;-76
2021/06/14 03:22:57;;;;;;;3.33;2.60;;;16.30;27.30;;;;;;10426316;28;20236;-76
2021/06/14 03:28:01;;;;;;;3.40;2.27;;;16.20;26.90;;;;;;10425280;28;20712;-76
2021/06/14 03:33:08;;;;;;;2.83;2.63;;;16.30;27.20;;;;;;10428200;28;20304;-76
2021/06/14 03:38:12;;;;;;;2.40;2.20;;;16.20;27.70;;;;;;10433762;28;20236;-76
2021/06/14 03:43:15;;;;;;;3.00;2.57;;;16.20;27.10;;;;;;10431342;28;20237;-76
2021/06/14 03:48:19;;;;;;;2.80;2.60;;;16.20;27.20;;;;;;10430239;28;20269;-76
2021/06/14 03:53:28;;;;;;;3.87;2.67;;;16.20;27.60;;;;;;10434150;28;20706;-76
2021/06/14 03:58:31;;;;;;;3.57;2.97;;;16.20;27.50;;;;;;10433132;28;20234;-76
2021/06/14 04:03:36;;;;;;;4.97;3.60;;;16.10;27.60;;;;;;10439188;28;20721;-76
2021/06/14 04:08:39;;;;;;;3.67;3.20;;;16.10;28.10;;;;;;10428125;28;20952;-76
2021/06/14 04:13:42;;;;;;;3.53;3.20;;;16.10;27.80;;;;;;10433620;28;20241;-76
2021/06/14 04:18:47;;;;;;;3.37;3.07;;;16.10;28.00;;;;;;10436054;28;20751;-76
2021/06/14 04:23:50;;;;;;;3.50;3.20;;;16.00;28.50;;;;;;10429722;28;20717;-76
2021/06/14 04:28:53;;;;;;;4.20;3.03;;;16.00;28.10;;;;;;10432456;28;20232;-77
2021/06/14 04:33:58;;;;;;;4.07;2.90;;;16.00;28.10;;;;;;10432528;28;20614;-76
2021/06/14 04:39:01;;;;;;;3.07;2.80;;;16.00;28.70;;;;;;10426989;28;20225;-77
2021/06/14 04:44:05;;;;;;;4.20;3.20;;;16.00;28.40;;;;;;10427131;28;21053;-76
2021/06/14 04:49:09;;;;;;;3.37;3.07;;;16.10;28.70;;;;;;10428105;28;20732;-75
2021/06/14 04:54:12;;;;;;;3.37;3.07;;;16.10;28.90;;;;;;10430690;28;20227;-75
2021/06/14 04:59:15;;;;;;;3.47;3.00;;;16.20;28.90;;;;;;10428559;28;20605;-75
2021/06/14 05:04:20;;;;;;;3.50;3.20;;;16.20;29.00;;;;;;10431671;28;20248;-75
2021/06/14 05:09:24;;;;;;;5.60;3.30;;;16.40;29.60;;;;;;10429278;28;20236;-75
2021/06/14 05:14:27;;;;;;;3.70;3.20;;;16.50;29.40;;;;;;10425783;28;20700;-75
2021/06/14 05:19:32;;;;;;;4.80;3.17;;;16.60;29.60;;;;;;10427877;28;20236;-78
2021/06/14 05:24:35;;;;;;;3.83;3.00;;;16.70;29.80;;;;;;10428777;28;20236;-75
2021/06/14 05:29:38;;;;;;;4.17;3.10;;;16.90;29.40;;;;;;10425895;28;20736;-75
2021/06/14 05:34:43;;;;;;;4.10;2.90;;;17.00;29.70;;;;;;10429000;28;20240;-75
2021/06/14 05:39:46;;;;;;;3.40;2.77;;;17.10;29.80;;;;;;10425367;28;20700;-75
2021/06/14 05:44:49;;;;;;;3.40;2.90;;;17.20;29.60;;;;;;10429675;28;20233;-78
2021/06/14 05:49:54;;;;;;;4.27;2.90;;;17.40;29.70;;;;;;10422099;28;20632;-77
2021/06/14 05:54:57;;;;;;;3.53;3.00;;;17.60;30.00;;;;;;10428202;28;20226;-76
2021/06/14 06:00:00;;;;;;;3.73;3.40;;;17.80;30.00;;;;;;10426380;28;20764;-79
2021/06/14 06:05:07;;;;;;;4.43;3.10;;;17.90;29.80;;;;;;10431862;28;20233;-79
2021/06/14 06:10:13;;;;;;;3.43;2.93;;;18.10;30.40;;;;;;10426583;28;20235;-79
2021/06/14 06:15:18;;;;;;;3.90;2.80;;;18.30;30.20;;;;;;10433218;28;20225;-77
2021/06/14 06:20:22;;;;;;;4.53;2.73;;;18.50;29.90;;;;;;10433472;28;20233;-79
2021/06/14 06:25:27;;;;;;;2.90;2.60;;;18.70;29.50;;;;;;10436554;28;20716;-76
2021/06/14 06:30:36;;;;;;;3.10;2.67;;;18.90;29.40;;;;;;10435029;28;20233;-76
2021/06/14 06:35:40;;;;;;;3.37;2.53;;;19.00;29.40;;;;;;10440434;28;20247;-78
2021/06/14 06:40:43;;;;;;;2.70;2.50;;;19.20;29.40;;;;;;10438074;28;20231;-78
2021/06/14 06:45:47;;;;;;;4.20;2.67;;;19.30;29.00;;;;;;10444418;28;20600;-78
2021/06/14 06:50:59;;;;;;;3.90;2.67;;;19.50;29.00;;;;;;10437863;28;20229;-78
2021/06/14 06:56:03;;;;;;;3.30;2.90;;;19.60;28.90;;;;;;10437924;28;20229;-78
2021/06/14 07:01:06;;;;;;;3.60;2.60;;;19.80;28.90;;;;;;10441991;28;20237;-78
2021/06/14 07:06:11;;;;;;;4.70;2.50;;;20.00;28.80;;;;;;10440289;28;20233;-78
2021/06/14 07:11:14;;;;;;;4.03;2.77;;;20.20;28.80;;;;;;10450927;28;20291;-78
2021/06/14 07:16:17;;;;;;;3.00;2.57;;;20.40;28.70;;;;;;10451248;28;20239;-78
2021/06/14 07:21:23;;;;;;;3.97;2.47;;;20.60;28.60;;;;;;10442587;28;20237;-78
2021/06/14 07:26:27;;;;;;;2.70;2.50;;;20.80;28.20;;;;;;10445932;28;20237;-78
2021/06/14 07:31:31;;;;;;;2.73;2.20;;;21.00;28.20;;;;;;10439876;28;20237;-77
2021/06/14 07:36:36;;;;;;;3.47;2.80;;;21.20;28.10;;;;;;10439088;28;20279;-78
2021/06/14 07:41:39;;;;;;;2.63;2.40;;;21.40;27.70;;;;;;10447670;28;20739;-77
2021/06/14 07:46:43;;;;;;;3.23;2.53;;;21.50;27.50;;;;;;10441749;28;20602;-77
2021/06/14 07:51:47;;;;;;;3.37;2.40;;;21.70;27.50;;;;;;10438592;28;20782;-77
2021/06/14 07:56:52;;;;;;;4.50;2.53;;;21.80;27.30;;;;;;10434301;28;20308;-77
2021/06/14 08:01:56;;;;;;;3.80;2.37;;;22.00;27.50;;;;;;10439584;28;20275;-77
2021/06/14 08:07:00;;;;;;;3.13;2.30;;;22.20;27.20;;;;;;10435516;28;20457;-76
2021/06/14 08:12:05;;;;;;;4.20;2.70;;;22.30;26.90;;;;;;10439973;28;20237;-77
2021/06/14 08:17:08;;;;;;;10.23;3.07;;;22.50;27.00;;;;;;10441688;28;20228;-76
2021/06/14 08:22:41;;;;;;;3.27;2.47;;;22.60;27.10;;;;;;10436431;28;20233;-76
2021/06/14 08:27:45;;;;;;;3.97;2.50;;;22.70;26.80;;;;;;10432273;28;20578;-76
2021/06/14 08:32:50;;;;;;;2.73;2.53;;;22.90;26.70;;;;;;10432534;28;20246;-76
2021/06/14 08:37:56;;;;;;;2.93;2.27;;;23.00;26.90;;;;;;10435955;28;20736;-80
2021/06/14 08:43:03;;;;;;;3.47;2.60;;;23.20;26.40;;;;;;10447544;28;20591;-81
2021/06/14 08:48:10;;;;;;;3.83;2.60;;;23.40;26.80;;;;;;10449193;28;20256;-80
2021/06/14 08:53:15;;;;;;;3.53;2.33;;;23.60;26.60;;;;;;10442009;28;20242;-78
2021/06/14 08:58:18;;;;;;;5.33;2.90;;;23.90;26.20;;;;;;10444022;28;20279;-80
2021/06/14 09:03:24;;;;;;;3.77;2.90;;;24.10;26.40;;;;;;10444078;28;20273;-80
2021/06/14 09:08:28;;;;;;;4.10;2.90;;;24.30;25.70;;;;;;10442524;28;20724;-80
2021/06/14 09:13:34;;;;;;;4.30;3.00;;;24.40;25.80;;;;;;10446482;28;20238;-79
2021/06/14 09:18:38;;;;;;;4.90;3.13;;;24.60;25.60;;;;;;10445322;28;20320;-78
2021/06/14 09:23:49;;;;;;;3.03;2.77;;;24.80;25.70;;;;;;10449054;28;20224;-78
2021/06/14 09:28:54;;;;;;;3.87;2.70;;;25.00;25.00;;;;;;10447957;28;20243;-77
2021/06/14 09:33:58;;;;;;;3.00;2.60;;;25.20;25.10;;;;;;10438870;28;20256;-80
2021/06/14 09:39:15;;;;;;;2.90;2.70;;;25.30;25.20;;;;;;10451208;28;20221;-75
2021/06/14 09:44:28;;;;;;;4.63;2.53;;;25.50;24.50;;;;;;10439380;28;20778;-74
2021/06/14 09:49:31;;;;;;;3.37;2.77;;;25.70;24.00;;;;;;10441876;28;20303;-77
2021/06/14 09:54:36;;;;;;;3.00;2.50;;;25.90;24.10;;;;;;10434981;28;20225;-77
2021/06/14 09:59:40;;;;;;;4.73;2.83;;;25.90;23.70;;;;;;10440795;28;20312;-78
2021/06/14 10:04:44;;;;;;;3.17;2.40;;;26.00;23.90;;;;;;10445303;28;20275;-78
2021/06/14 10:09:50;;;;;;;4.30;2.70;;;26.10;23.90;;;;;;10435244;28;20229;-78
2021/06/14 10:14:56;;;;;;;3.70;2.70;;;26.30;23.30;;;;;;10439687;28;20786;-78
2021/06/14 10:20:10;;;;;;;3.37;2.57;;;26.40;23.10;;;;;;10441937;28;20228;-77
2021/06/14 10:25:17;;;;;;;2.77;2.57;;;26.60;22.80;;;;;;10432840;28;20243;-77
2021/06/14 10:30:23;;;;;;;4.17;2.30;;;26.80;22.80;;;;;;10439540;28;20233;-77
2021/06/14 10:35:27;;;;;;;4.10;2.27;;;26.90;22.00;;;;;;10435843;28;20830;-76
2021/06/14 10:40:35;;;;;;;2.87;2.40;;;27.00;22.30;;;;;;10439439;28;20239;-75
2021/06/14 10:45:39;;;;;;;2.43;2.17;;;27.10;21.10;;;;;;10433134;28;20690;-76
2021/06/14 10:50:42;;;;;;;2.53;1.80;;;27.20;22.10;;;;;;10434687;28;20236;-76
2021/06/14 10:55:51;;;;;;;3.30;2.50;;;27.30;21.60;;;;;;10436700;28;20240;-76
2021/06/14 11:01:03;;;;;;;2.63;2.40;;;27.30;20.00;;;;;;10402797;28;20225;-76
2021/06/14 11:06:20;;;;;;;2.03;1.83;;;27.40;19.80;;;;;;10433904;28;20307;-76
2021/06/14 11:11:25;;;;;;;2.40;2.20;;;27.50;19.80;;;;;;10434015;28;20252;-76
2021/06/14 11:16:37;;;;;;;2.20;1.93;;;27.60;20.30;;;;;;10432620;28;20601;-76
2021/06/14 11:21:51;;;;;;;2.10;1.93;;;27.70;20.00;;;;;;10424983;28;20228;-75
2021/06/14 11:26:59;;;;;;;3.73;2.20;;;27.80;20.20;;;;;;10426926;28;20275;-74
2021/06/14 11:32:03;;;;;;;2.83;2.10;;;27.70;19.60;;;;;;10421494;28;20221;-76
2021/06/14 11:37:07;;;;;;;2.37;2.10;;;27.80;20.00;;;;;;10424834;28;20225;-75
2021/06/14 11:42:14;;;;;;;2.30;2.10;;;27.80;20.00;;;;;;10422378;28;20237;-74
2021/06/14 11:47:19;;;;;;;2.30;2.10;;;27.90;19.60;;;;;;10427241;28;20283;-74
2021/06/14 11:52:25;;;;;;;4.33;2.43;;;27.90;20.00;;;;;;10422893;28;20775;-75
2021/06/14 11:57:32;;;;;;;2.30;2.10;;;27.90;20.00;;;;;;10428282;28;20312;-73
2021/06/14 12:02:35;;;;;;;2.37;2.10;;;28.00;19.20;;;;;;10436253;28;20298;-73
2021/06/14 12:07:41;;;;;;;2.30;2.07;;;28.00;19.20;;;;;;10431421;28;20606;-74
2021/06/14 12:12:46;;;;;;;2.20;2.00;;;28.10;19.10;;;;;;10428504;28;20237;-73
2021/06/14 12:17:51;;;;;;;3.33;2.10;;;28.20;18.50;;;;;;10428125;28;20348;-75
2021/06/14 12:23:01;;;;;;;2.53;2.20;;;28.20;19.00;;;;;;10424045;28;20232;-73
2021/06/14 12:28:09;;;;;;;2.27;2.07;;;28.20;17.90;;;;;;10433436;28;20245;-75
2021/06/14 12:33:12;;;;;;;2.00;1.90;;;28.40;18.30;;;;;;10429832;28;20282;-75
2021/06/14 12:38:15;;;;;;;2.57;2.20;;;28.40;18.40;;;;;;10431432;28;20229;-74
2021/06/14 12:43:20;;;;;;;2.00;1.90;;;28.40;18.30;;;;;;10433072;28;20237;-77
2021/06/14 12:48:24;;;;;;;1.93;1.73;;;28.40;17.80;;;;;;10434008;28;20239;-77
2021/06/14 12:53:30;;;;;;;3.07;1.80;;;28.50;18.20;;;;;;10440576;28;20233;-80
2021/06/14 12:58:39;;;;;;;3.10;2.00;;;28.60;17.30;;;;;;10442592;28;20240;-77
2021/06/14 13:03:43;;;;;;;1.90;1.80;;;28.70;16.80;;;;;;10438040;28;20717;-77
2021/06/14 13:08:48;;;;;;;2.57;1.80;;;28.70;17.50;;;;;;10442584;28;20225;-79
2021/06/14 13:13:55;;;;;;;3.00;1.80;;;28.70;17.40;;;;;;10432390;28;20347;-76
2021/06/14 13:19:01;;;;;;;2.67;1.90;;;28.80;17.20;;;;;;10437699;28;20299;-79
2021/06/14 13:24:07;;;;;;;2.50;1.70;;;28.80;16.40;;;;;;10430594;28;20225;-76
2021/06/14 13:29:16;;;;;;;2.33;1.73;;;28.80;16.40;;;;;;10431400;28;20727;-75
2021/06/14 13:34:26;;;;;;;1.60;1.50;;;28.80;15.70;;;;;;10429399;28;20225;-74
2021/06/14 13:39:32;;;;;;;1.70;1.60;;;28.80;16.10;;;;;;10426113;28;20225;-75
2021/06/14 13:44:37;;;;;;;1.63;1.53;;;28.90;16.20;;;;;;10424189;28;20236;-75
2021/06/14 13:49:43;;;;;;;1.80;1.70;;;28.90;15.60;;;;;;10429580;28;20232;-75
2021/06/14 13:54:57;;;;;;;1.83;1.70;;;28.90;15.90;;;;;;10430253;28;20239;-75
2021/06/14 14:00:14;;;;;;;2.73;1.80;;;28.90;15.30;;;;;;10424612;28;20236;-78
2021/06/14 14:05:29;;;;;;;3.63;1.73;;;28.90;15.10;;;;;;10429801;28;20229;-76
2021/06/14 14:10:33;;;;;;;2.00;1.80;;;28.90;15.10;;;;;;10427307;28;20233;-75
2021/06/14 14:15:38;;;;;;;2.10;1.73;;;29.00;16.00;;;;;;10427590;28;20237;-75
2021/06/14 14:20:41;;;;;;;4.20;1.97;;;29.10;15.60;;;;;;10424717;28;20229;-75
2021/06/14 14:25:45;;;;;;;1.87;1.77;;;29.20;16.00;;;;;;10428209;28;20228;-76
2021/06/14 14:30:51;;;;;;;3.17;1.80;;;29.30;15.70;;;;;;10421068;28;20243;-76
2021/06/14 14:36:04;;;;;;;2.20;2.00;;;29.40;15.40;;;;;;10424140;28;20229;-76
2021/06/14 14:41:11;;;;;;;2.20;2.00;;;29.50;15.40;;;;;;10425215;28;20229;-75
2021/06/14 14:46:17;;;;;;;2.47;2.17;;;29.50;15.20;;;;;;10421237;28;20241;-75
2021/06/14 14:51:21;;;;;;;2.20;1.93;;;29.50;15.00;;;;;;10426687;28;20648;-74
2021/06/14 14:56:24;;;;;;;2.33;1.77;;;29.50;15.50;;;;;;10431460;28;20225;-77
2021/06/14 15:01:28;;;;;;;2.00;1.80;;;29.50;15.40;;;;;;10426464;28;20229;-77
2021/06/14 15:06:32;;;;;;;2.37;2.00;;;29.50;15.10;;;;;;10428976;28;20231;-77
2021/06/14 15:11:36;;;;;;;2.00;1.80;;;29.70;15.30;;;;;;10422409;28;20229;-77
2021/06/14 15:16:41;;;;;;;2.23;1.83;;;29.70;15.10;;;;;;10427507;28;20232;-77
2021/06/14 15:21:44;;;;;;;2.10;1.90;;;29.70;14.80;;;;;;10428999;28;20240;-77
2021/06/14 15:26:47;;;;;;;2.17;1.97;;;29.80;15.00;;;;;;10422610;28;20226;-79
2021/06/14 15:31:52;;;;;;;2.00;1.80;;;29.80;15.20;;;;;;10438186;28;20241;-78
2021/06/14 15:36:56;;;;;;;3.27;2.10;;;29.80;15.20;;;;;;10449012;28;20225;-78
2021/06/14 15:41:59;;;;;;;3.00;1.80;;;29.80;15.30;;;;;;10444184;28;20725;-79
2021/06/14 15:47:05;;;;;;;4.30;2.07;;;29.80;15.20;;;;;;10438596;28;20247;-78
2021/06/14 15:52:09;;;;;;;3.70;2.03;;;29.80;14.80;;;;;;10441552;28;20232;-77
2021/06/14 15:57:12;;;;;;;2.50;2.10;;;29.80;15.30;;;;;;10431574;28;20229;-77
2021/06/14 16:02:17;;;;;;;3.27;2.10;;;29.90;15.40;;;;;;10430428;28;20245;-77
2021/06/14 16:07:22;;;;;;;2.43;2.20;;;29.90;15.30;;;;;;10433513;28;20237;-77
2021/06/14 16:12:25;;;;;;;2.17;2.07;;;29.80;15.60;;;;;;10436368;28;20596;-78
2021/06/14 16:17:30;;;;;;;2.20;2.00;;;29.80;16.00;;;;;;10442474;28;20226;-77
2021/06/14 16:22:33;;;;;;;3.27;2.30;;;29.70;15.30;;;;;;10448561;28;20240;-78
2021/06/14 16:27:37;;;;;;;2.83;2.13;;;29.70;15.50;;;;;;10449961;28;20252;-78
2021/06/14 16:32:42;;;;;;;2.73;2.10;;;29.70;15.60;;;;;;10441575;28;20232;-81
2021/06/14 16:37:47;;;;;;;2.67;2.00;;;29.70;15.50;;;;;;10432685;28;20261;-76
2021/06/14 16:42:50;;;;;;;2.43;2.23;;;29.70;15.50;;;;;;10423317;28;20255;-74
2021/06/14 16:47:57;;;;;;;3.27;2.20;;;29.70;15.80;;;;;;10434093;28;20701;-74
2021/06/14 16:53:00;;;;;;;2.03;1.83;;;29.60;15.40;;;;;;10429505;28;20226;-75
2021/06/14 16:58:04;;;;;;;1.90;1.80;;;29.60;15.70;;;;;;10423013;28;20225;-75
2021/06/14 17:03:09;;;;;;;2.13;1.93;;;29.50;15.60;;;;;;10413383;28;20229;-75
2021/06/14 17:08:12;;;;;;;3.03;2.10;;;29.50;15.60;;;;;;10434008;28;20235;-75
2021/06/14 17:13:15;;;;;;;2.23;1.90;;;29.50;15.60;;;;;;10429586;28;20243;-75
2021/06/14 17:18:20;;;;;;;2.17;1.90;;;29.40;15.70;;;;;;10431652;28;20693;-74
2021/06/14 17:23:24;;;;;;;2.57;2.03;;;29.40;15.60;;;;;;10431838;28;20238;-77
2021/06/14 17:28:39;;;;;;;2.17;1.97;;;29.40;15.60;;;;;;10435622;28;20739;-78
2021/06/14 17:33:44;;;;;;;2.67;2.03;;;29.30;15.80;;;;;;10423581;28;20606;-74
2021/06/14 17:38:47;;;;;;;3.37;2.10;;;29.30;15.50;;;;;;10429846;28;20252;-75
2021/06/14 17:43:50;;;;;;;2.50;2.13;;;29.30;15.90;;;;;;10424992;28;20718;-74
2021/06/14 17:48:55;;;;;;;2.73;2.03;;;29.30;15.80;;;;;;10427960;28;20238;-74
2021/06/14 17:54:08;;;;;;;2.33;2.10;;;29.20;15.80;;;;;;10417943;28;20237;-75
2021/06/14 17:59:12;;;;;;;2.13;1.90;;;29.30;15.80;;;;;;10423562;28;20221;-74
2021/06/14 18:04:17;;;;;;;2.17;1.90;;;29.30;16.00;;;;;;10426383;28;20233;-74
2021/06/14 18:09:20;;;;;;;2.90;2.00;;;29.30;16.10;;;;;;10429763;28;20241;-78
2021/06/14 18:14:24;;;;;;;2.17;1.97;;;29.30;16.20;;;;;;10443470;28;20235;-79
2021/06/14 18:19:28;;;;;;;2.83;2.30;;;29.30;16.20;;;;;;10443471;28;20229;-79
2021/06/14 18:24:31;;;;;;;2.37;2.10;;;29.20;16.50;;;;;;10438896;28;20244;-79
2021/06/14 18:29:35;;;;;;;2.80;2.17;;;29.20;16.50;;;;;;10436758;28;20725;-79
2021/06/14 18:34:39;;;;;;;2.07;1.87;;;29.00;16.30;;;;;;10441619;28;20243;-79
2021/06/14 18:39:42;;;;;;;3.70;2.20;;;28.80;16.30;;;;;;10445653;28;20225;-80
2021/06/14 18:44:46;;;;;;;3.33;2.00;;;28.70;16.30;;;;;;10438744;28;20317;-80
2021/06/14 18:49:51;;;;;;;2.93;2.10;;;28.50;16.30;;;;;;10441096;28;20742;-80
2021/06/14 18:54:54;;;;;;;2.40;2.20;;;28.30;16.50;;;;;;10421808;28;20234;-80
2021/06/14 18:59:57;;;;;;;4.43;2.03;;;28.20;16.80;;;;;;10431570;28;20609;-81
2021/06/14 19:05:22;;;;;;;2.97;2.27;;;28.10;16.90;;;;;;10437489;28;20229;-77
2021/06/14 19:10:26;;;;;;;2.77;2.57;;;28.00;17.30;;;;;;10402084;28;20298;-77
2021/06/14 19:15:31;;;;;;;2.93;2.53;;;27.90;17.30;;;;;;10414857;28;20233;-77
2021/06/14 19:20:37;;;;;;;2.77;2.30;;;27.80;17.40;;;;;;10410391;28;20225;-76
2021/06/14 19:25:47;;;;;;;2.30;2.10;;;27.70;17.70;;;;;;10404426;28;20233;-81
2021/06/14 19:31:58;;;;;;;2.17;1.97;;;27.50;17.70;;;;;;10403572;28;20248;-85
2021/06/14 19:37:50;;;;;;;2.10;1.90;;;27.30;17.80;;;;;;10416150;28;20228;-85
2021/06/14 19:49:48;;;;;;;4.87;1.90;;;26.90;18.10;;;;;;10402882;28;20315;-80
2021/06/14 20:01:22;;;;;;;2.73;2.20;;;26.50;18.40;;;;;;10384089;28;20237;-80
2021/06/14 20:06:50;;;;;;;1.90;1.80;;;26.30;19.20;;;;;;10407994;28;20284;-85
2021/06/14 20:11:57;;;;;;;2.60;2.40;;;26.10;19.10;;;;;;10399357;28;20701;-84
2021/06/14 20:28:37;;;;;;;2.40;2.20;;;25.60;19.50;;;;;;10416596;28;20680;-81
2021/06/14 20:34:08;;;;;;;2.90;2.60;;;25.40;19.20;;;;;;10414474;28;20225;-82
2021/06/14 20:39:12;;;;;;;2.83;2.53;;;25.20;19.80;;;;;;10450147;28;20225;-82
2021/06/14 20:44:16;;;;;;;2.53;2.27;;;25.00;19.70;;;;;;10447327;28;20233;-82
2021/06/14 20:49:20;;;;;;;3.03;2.80;;;24.80;19.90;;;;;;10442305;28;20597;-83
2021/06/14 20:54:23;;;;;;;4.47;2.70;;;24.50;20.40;;;;;;10445778;28;20235;-83
2021/06/14 20:59:27;;;;;;;2.90;2.60;;;24.40;20.40;;;;;;10436879;28;20232;-82
2021/06/14 21:04:31;;;;;;;2.50;2.30;;;24.30;20.50;;;;;;10445579;28;20589;-82
2021/06/14 21:09:34;;;;;;;3.37;2.43;;;24.10;20.80;;;;;;10447079;28;20232;-83
2021/06/14 21:14:37;;;;;;;2.97;2.60;;;23.90;20.60;;;;;;10446328;28;20238;-82
2021/06/14 21:19:42;;;;;;;5.23;2.53;;;23.60;20.90;;;;;;10443345;28;20234;-83
2021/06/14 21:24:45;;;;;;;3.80;2.83;;;23.30;21.30;;;;;;10448220;28;20232;-82
2021/06/14 21:29:49;;;;;;;2.90;2.70;;;23.10;21.20;;;;;;10444854;28;20229;-82
2021/06/14 21:35:13;;;;;;;4.03;2.80;;;22.80;21.50;;;;;;10443206;28;20712;-82
2021/06/14 21:40:19;;;;;;;2.40;2.20;;;22.60;22.50;;;;;;10447289;28;20231;-82
2021/06/14 21:45:23;;;;;;;3.80;3.13;;;22.40;22.20;;;;;;10441484;28;20259;-83
2021/06/14 21:50:27;;;;;;;3.17;2.87;;;22.30;22.20;;;;;;10444319;28;20230;-82
2021/06/14 21:55:30;;;;;;;3.23;2.70;;;22.10;22.80;;;;;;10443355;28;20234;-84
2021/06/14 22:00:34;;;;;;;3.40;2.70;;;21.90;22.50;;;;;;10439816;28;20232;-82
2021/06/14 22:05:38;;;;;;;3.23;2.47;;;21.70;22.70;;;;;;10447502;28;20229;-84
2021/06/14 22:10:41;;;;;;;3.00;2.73;;;21.60;23.40;;;;;;10448904;28;20236;-82
2021/06/14 22:15:45;;;;;;;3.00;2.70;;;21.60;23.10;;;;;;10444780;28;20247;-82
2021/06/14 22:20:49;;;;;;;2.77;2.43;;;21.60;23.10;;;;;;10442402;28;20233;-82
2021/06/14 22:25:53;;;;;;;3.13;2.83;;;21.60;23.60;;;;;;10438382;28;20735;-82
2021/06/14 22:30:56;;;;;;;3.83;2.67;;;21.60;23.40;;;;;;10441792;28;20604;-84
2021/06/14 22:36:00;;;;;;;3.20;2.90;;;21.60;23.40;;;;;;10442226;28;20225;-84
2021/06/14 22:41:18;;;;;;;3.63;2.80;;;21.50;23.70;;;;;;10441286;28;20232;-82
2021/06/14 22:46:22;;;;;;;3.20;2.90;;;21.40;23.30;;;;;;10444989;28;20727;-81
2021/06/14 22:51:27;;;;;;;3.10;2.80;;;21.30;23.50;;;;;;10442371;28;20705;-84
2021/06/14 22:56:30;;;;;;;2.80;2.60;;;21.10;24.00;;;;;;10443688;28;20228;-84
2021/06/14 23:01:33;;;;;;;3.17;2.60;;;20.90;23.70;;;;;;10439732;28;20639;-84
2021/06/14 23:06:38;;;;;;;3.33;2.83;;;20.80;24.00;;;;;;10441036;28;20221;-84
2021/06/14 23:11:42;;;;;;;2.80;2.60;;;20.70;24.50;;;;;;10440654;28;20233;-84
2021/06/14 23:16:45;;;;;;;2.80;2.60;;;20.60;24.20;;;;;;10443391;28;20312;-84
2021/06/14 23:21:49;;;;;;;3.30;3.00;;;20.60;24.30;;;;;;10437016;28;20239;-84
2021/06/14 23:26:53;;;;;;;4.80;3.17;;;20.60;24.70;;;;;;10441713;28;20255;-84
2021/06/14 23:31:56;;;;;;;4.30;3.10;;;20.50;24.40;;;;;;10441331;28;20781;-83
2021/06/14 23:37:01;;;;;;;2.73;2.50;;;20.40;24.40;;;;;;10444731;28;20235;-83
2021/06/14 23:42:05;;;;;;;2.93;2.73;;;20.10;24.80;;;;;;10442290;28;20224;-83
2021/06/14 23:47:08;;;;;;;3.33;3.00;;;19.90;25.20;;;;;;10444584;28;20232;-83
2021/06/14 23:52:13;;;;;;;2.90;2.67;;;19.80;25.70;;;;;;10445385;28;20228;-83
2021/06/14 23:57:16;;;;;;;2.70;2.50;;;19.70;25.10;;;;;;10450715;28;20704;-83
